Time;durP1;ratioP1;P1;durP2;ratioP2;P2;SDS_P1;SDS_P2;PMS_P1;PMS_P2;Temp;Humidity;BMP_temperature;BMP_pressure;BME280_temperature;BME280_humidity;BME280_pressure;Samples;Min_cycle;Max_cycle;Signal;HPM_P1;HPM_P2
2022/03/17 00:00:56;;;;;;;20.30;15.80;;;11.80;99.90;;;;;;5015133;28;20038;-62
2022/03/17 00:03:22;;;;;;;19.67;15.85;;;11.80;99.90;;;;;;5010695;28;20034;-61
2022/03/17 00:05:48;;;;;;;21.63;15.65;;;11.70;99.90;;;;;;5003272;28;20045;-61
2022/03/17 00:08:15;;;;;;;21.83;16.20;;;11.70;99.90;;;;;;5014741;28;20046;-61
2022/03/17 00:10:40;;;;;;;21.25;16.02;;;11.70;99.90;;;;;;5014886;28;20041;-61
2022/03/17 00:13:06;;;;;;;21.98;17.10;;;11.70;99.90;;;;;;5014219;28;20060;-61
2022/03/17 00:15:32;;;;;;;21.23;16.95;;;11.70;99.90;;;;;;5015010;28;20052;-61
2022/03/17 00:17:57;;;;;;;20.63;16.48;;;11.60;99.90;;;;;;5014267;28;20033;-62
2022/03/17 00:20:23;;;;;;;22.40;16.30;;;11.70;99.90;;;;;;5014959;28;20045;-65
2022/03/17 00:22:50;;;;;;;21.52;16.70;;;11.60;99.90;;;;;;5014136;28;20045;-63
2022/03/17 00:25:17;;;;;;;21.27;16.83;;;11.60;99.90;;;;;;4995746;28;20066;-62
2022/03/17 00:27:43;;;;;;;21.55;16.15;;;11.60;99.90;;;;;;4994931;28;20054;-62
2022/03/17 00:30:09;;;;;;;20.42;16.58;;;11.60;99.90;;;;;;4995306;28;20057;-63
2022/03/17 00:32:35;;;;;;;22.95;17.48;;;11.60;99.90;;;;;;4994639;28;20391;-62
2022/03/17 00:37:46;;;;;;;20.92;16.48;;;11.60;99.90;;;;;;5014754;28;20042;-63
2022/03/17 00:40:13;;;;;;;23.83;17.40;;;11.60;99.90;;;;;;5014779;28;20041;-62
2022/03/17 00:42:39;;;;;;;23.05;17.73;;;11.50;99.90;;;;;;5014748;28;20171;-62
2022/03/17 00:45:06;;;;;;;22.70;16.83;;;11.50;99.90;;;;;;4979106;28;20046;-62
2022/03/17 00:47:31;;;;;;;21.67;16.60;;;11.60;99.90;;;;;;4977465;28;20050;-62
2022/03/17 00:49:57;;;;;;;24.23;17.52;;;11.50;99.90;;;;;;4994835;28;20368;-62
2022/03/17 00:52:23;;;;;;;23.73;17.13;;;11.50;99.90;;;;;;4994673;28;20071;-62
2022/03/17 00:54:48;;;;;;;22.55;17.60;;;11.50;99.90;;;;;;5010511;28;20038;-62
2022/03/17 00:57:14;;;;;;;24.55;17.98;;;11.50;99.90;;;;;;5014276;28;20398;-63
2022/03/17 00:59:40;;;;;;;22.98;17.45;;;11.50;99.90;;;;;;5014165;28;20046;-62
2022/03/17 01:02:07;;;;;;;23.55;16.90;;;11.50;99.90;;;;;;5014365;28;20096;-63
2022/03/17 01:04:34;;;;;;;21.90;17.27;;;11.50;99.90;;;;;;5000455;28;20437;-63
2022/03/17 01:06:59;;;;;;;22.48;17.95;;;11.50;99.90;;;;;;4994662;28;20085;-63
2022/03/17 01:09:28;;;;;;;23.70;17.90;;;11.50;99.90;;;;;;4994386;28;20034;-63
2022/03/17 01:11:54;;;;;;;22.73;18.13;;;11.50;99.90;;;;;;4994080;28;20501;-62
2022/03/17 01:14:20;;;;;;;23.67;18.23;;;11.50;99.90;;;;;;5006182;28;20046;-63
2022/03/17 01:16:45;;;;;;;23.23;18.13;;;11.50;99.90;;;;;;5014237;28;20034;-63
2022/03/17 01:19:11;;;;;;;22.75;19.35;;;11.50;99.90;;;;;;5014091;28;20038;-63
2022/03/17 01:21:37;;;;;;;22.40;18.60;;;11.50;99.90;;;;;;5014295;28;20042;-63
2022/03/17 01:24:03;;;;;;;23.45;18.38;;;11.50;99.90;;;;;;5004921;28;20471;-63
2022/03/17 01:26:28;;;;;;;25.50;18.33;;;11.50;99.90;;;;;;4994628;28;20038;-63
2022/03/17 01:28:54;;;;;;;25.90;19.48;;;11.60;99.90;;;;;;4976826;28;20077;-63
2022/03/17 01:31:24;;;;;;;28.98;20.75;;;11.50;99.90;;;;;;4994205;28;20058;-62
2022/03/17 01:33:50;;;;;;;28.10;20.70;;;11.50;99.90;;;;;;4984745;28;20049;-62
2022/03/17 01:36:16;;;;;;;26.45;21.20;;;11.40;99.90;;;;;;5014002;28;20135;-62
2022/03/17 01:38:42;;;;;;;25.67;20.33;;;11.30;99.90;;;;;;5013512;28;20077;-63
2022/03/17 01:41:07;;;;;;;25.35;20.60;;;11.30;99.90;;;;;;5014095;28;20038;-64
2022/03/17 01:43:33;;;;;;;24.92;20.67;;;11.30;99.90;;;;;;5008752;28;20144;-63
2022/03/17 01:45:59;;;;;;;26.42;21.40;;;11.30;99.90;;;;;;4994239;28;20046;-63
2022/03/17 01:48:24;;;;;;;26.33;21.75;;;11.30;99.90;;;;;;4976682;28;20042;-64
2022/03/17 01:50:50;;;;;;;28.60;22.95;;;11.20;99.90;;;;;;4994347;28;20117;-62
2022/03/17 01:53:16;;;;;;;26.75;22.20;;;11.20;99.90;;;;;;4997151;28;20042;-63
2022/03/17 01:55:42;;;;;;;27.52;22.92;;;11.20;99.90;;;;;;5013978;28;20370;-63
2022/03/17 01:58:08;;;;;;;28.25;22.45;;;11.10;99.90;;;;;;5017257;28;20041;-64
2022/03/17 02:00:34;;;;;;;27.33;23.05;;;11.10;99.90;;;;;;5000288;28;20413;-63
2022/03/17 02:03:00;;;;;;;29.60;23.02;;;11.10;99.90;;;;;;5016689;28;20073;-63
2022/03/17 02:05:26;;;;;;;29.50;23.27;;;11.00;99.90;;;;;;4997949;28;20035;-63
2022/03/17 02:07:52;;;;;;;30.50;22.80;;;11.10;99.90;;;;;;4997410;28;20069;-63
2022/03/17 02:10:21;;;;;;;28.60;23.10;;;11.10;99.90;;;;;;4997918;28;20046;-63
2022/03/17 02:15:33;;;;;;;27.83;23.10;;;11.10;99.90;;;;;;4997803;28;20042;-64
2022/03/17 02:18:02;;;;;;;28.90;24.00;;;11.10;99.90;;;;;;4997174;28;20034;-63
2022/03/17 02:20:27;;;;;;;30.45;23.60;;;11.10;99.90;;;;;;4997577;28;20101;-64
2022/03/17 02:25:33;;;;;;;28.65;22.58;;;11.10;99.90;;;;;;4997204;28;20042;-63
2022/03/17 02:25:41;;;;;;;30.65;25.10;;;11.20;99.90;;;;;;4997516;28;20057;-62
2022/03/17 02:28:07;;;;;;;30.38;23.58;;;11.20;99.90;;;;;;4997115;28;20085;-63
2022/03/17 02:30:37;;;;;;;30.48;23.27;;;11.10;99.90;;;;;;4979929;28;20408;-62
2022/03/17 02:33:15;;;;;;;28.60;22.98;;;11.10;99.90;;;;;;4997795;28;20049;-63
2022/03/17 02:35:41;;;;;;;29.15;23.45;;;11.20;99.90;;;;;;4997323;28;20062;-63
2022/03/17 02:38:07;;;;;;;30.48;24.20;;;11.20;99.90;;;;;;4996873;28;20042;-63
2022/03/17 02:40:36;;;;;;;29.73;24.23;;;11.20;99.90;;;;;;4997222;28;20440;-63
2022/03/17 02:43:04;;;;;;;28.17;23.70;;;11.20;99.90;;;;;;4997382;28;20042;-63
2022/03/17 02:45:31;;;;;;;29.60;24.42;;;11.20;99.90;;;;;;4999186;28;20054;-63
2022/03/17 02:47:57;;;;;;;28.08;23.60;;;11.20;99.90;;;;;;5016178;28;20180;-62
2022/03/17 02:50:23;;;;;;;28.02;22.85;;;11.20;99.90;;;;;;5016471;28;20116;-63
2022/03/17 02:52:48;;;;;;;29.05;23.70;;;11.20;99.90;;;;;;5016411;28;20033;-63
2022/03/17 02:55:15;;;;;;;31.00;25.02;;;11.20;99.90;;;;;;4998250;28;20038;-63
2022/03/17 02:57:42;;;;;;;29.55;23.00;;;11.20;99.90;;;;;;4979374;28;20117;-63
2022/03/17 03:00:09;;;;;;;31.98;25.35;;;11.20;99.90;;;;;;4979483;28;20064;-63
2022/03/17 03:02:35;;;;;;;30.42;24.00;;;11.20;99.90;;;;;;4996416;28;20482;-64
2022/03/17 03:05:02;;;;;;;32.47;25.00;;;11.20;99.90;;;;;;5012928;28;20364;-63
2022/03/17 03:07:28;;;;;;;30.30;24.35;;;11.20;99.90;;;;;;5015144;28;20085;-63
2022/03/17 03:09:55;;;;;;;33.83;24.95;;;11.30;99.90;;;;;;5016040;28;20451;-63
2022/03/17 03:12:21;;;;;;;30.80;25.33;;;11.30;99.90;;;;;;5015801;28;20058;-63
2022/03/17 03:14:47;;;;;;;34.58;25.17;;;11.30;99.90;;;;;;5001814;28;20121;-65
2022/03/17 03:17:13;;;;;;;30.90;25.40;;;11.30;99.90;;;;;;4996002;28;20034;-62
2022/03/17 03:19:39;;;;;;;31.05;25.23;;;11.30;99.90;;;;;;4979169;28;20755;-64
2022/03/17 03:22:04;;;;;;;30.52;24.63;;;11.30;99.90;;;;;;4996540;28;20053;-64
2022/03/17 03:24:30;;;;;;;33.25;26.33;;;11.30;99.90;;;;;;5008321;28;20042;-63
2022/03/17 03:26:56;;;;;;;32.72;24.75;;;11.30;99.90;;;;;;5015955;28;20362;-62
2022/03/17 03:29:22;;;;;;;34.15;26.05;;;11.30;99.90;;;;;;5015273;28;20050;-63
2022/03/17 03:31:59;;;;;;;35.00;26.77;;;11.40;99.90;;;;;;5015659;28;20096;-63
2022/03/17 03:34:27;;;;;;;33.88;25.83;;;11.40;99.90;;;;;;5004328;28;20034;-63
2022/03/17 03:39:38;;;;;;;;;;;11.40;99.90;;;;;;4996594;28;20046;-63
2022/03/17 03:42:05;;;;;;;31.92;25.30;;;11.30;99.90;;;;;;4995972;28;20020;-63
2022/03/17 03:44:31;;;;;;;36.60;26.85;;;11.40;99.90;;;;;;5007464;28;20135;-64
2022/03/17 03:46:56;;;;;;;35.08;26.10;;;11.30;99.90;;;;;;5015320;28;20085;-62
2022/03/17 03:49:22;;;;;;;35.60;26.48;;;11.30;99.90;;;;;;5015254;28;20049;-63
2022/03/17 03:51:48;;;;;;;39.47;28.63;;;11.30;99.90;;;;;;5015567;28;20046;-63
2022/03/17 03:54:15;;;;;;;37.70;29.15;;;11.30;99.90;;;;;;5005742;28;20042;-63
2022/03/17 03:56:49;;;;;;;35.15;26.20;;;11.10;99.90;;;;;;4995853;28;20042;-63
2022/03/17 03:59:20;;;;;;;36.92;27.95;;;11.10;99.90;;;;;;4995635;28;20045;-63
2022/03/17 04:01:48;;;;;;;39.28;28.85;;;11.00;99.90;;;;;;4995781;28;20081;-64
2022/03/17 04:04:20;;;;;;;37.92;28.17;;;10.90;99.90;;;;;;5004953;28;20053;-63
2022/03/17 04:06:52;;;;;;;40.13;29.10;;;10.80;99.90;;;;;;5015279;28;20048;-63
2022/03/17 04:09:20;;;;;;;41.45;30.10;;;10.70;99.90;;;;;;5014931;28;20045;-62
2022/03/17 04:11:46;;;;;;;43.50;30.92;;;10.70;99.90;;;;;;5014864;28;20054;-63
2022/03/17 04:14:13;;;;;;;42.90;30.35;;;10.60;99.90;;;;;;4988254;28;20121;-63
2022/03/17 04:16:40;;;;;;;39.45;29.95;;;10.50;99.90;;;;;;4995220;28;20050;-63
2022/03/17 04:19:06;;;;;;;38.72;29.45;;;10.50;99.90;;;;;;4994850;28;20097;-63
2022/03/17 04:21:32;;;;;;;43.13;30.90;;;10.40;99.90;;;;;;4995285;28;20042;-63
2022/03/17 04:23:58;;;;;;;45.55;31.33;;;10.40;99.90;;;;;;5002239;28;20029;-63
2022/03/17 04:26:24;;;;;;;40.75;29.55;;;10.30;99.90;;;;;;5014958;28;20067;-63
2022/03/17 04:28:50;;;;;;;42.42;29.77;;;10.40;99.90;;;;;;5014078;28;20042;-63
2022/03/17 04:31:15;;;;;;;38.75;28.25;;;10.40;99.90;;;;;;5014473;28;20037;-63
2022/03/17 04:33:41;;;;;;;33.92;23.95;;;10.50;99.90;;;;;;5009419;28;20034;-64
2022/03/17 04:36:07;;;;;;;21.95;14.63;;;10.50;99.90;;;;;;4995069;28;20046;-63
2022/03/17 04:38:33;;;;;;;14.88;9.38;;;10.30;99.90;;;;;;4994539;28;20536;-63
2022/03/17 04:40:59;;;;;;;12.45;9.18;;;10.10;99.90;;;;;;4995162;28;20112;-63
2022/03/17 04:43:25;;;;;;;11.98;8.30;;;9.80;99.90;;;;;;4997389;28;20038;-64
2022/03/17 04:45:51;;;;;;;10.68;8.18;;;9.60;99.90;;;;;;5014275;28;20042;-63
2022/03/17 04:48:17;;;;;;;11.30;7.95;;;9.50;99.90;;;;;;5014140;28;20034;-63
2022/03/17 04:50:43;;;;;;;11.68;8.85;;;9.30;99.90;;;;;;5014674;28;20038;-63
2022/03/17 04:53:27;;;;;;;12.45;9.27;;;9.20;99.90;;;;;;5013608;28;20041;-63
2022/03/17 04:55:54;;;;;;;;;;;9.20;99.90;;;;;;4995304;28;20047;-63
2022/03/17 04:58:20;;;;;;;12.60;8.77;;;9.10;99.90;;;;;;4994528;28;19917;-63
2022/03/17 05:00:46;;;;;;;10.02;8.80;;;9.10;99.90;;;;;;4977591;28;20117;-63
2022/03/17 05:03:12;;;;;;;10.48;8.05;;;9.00;99.90;;;;;;4995141;28;20047;-63
2022/03/17 05:05:37;;;;;;;11.55;7.88;;;9.00;99.90;;;;;;5014388;28;20459;-63
2022/03/17 05:08:06;;;;;;;12.48;7.88;;;9.00;99.90;;;;;;5013713;28;20053;-63
2022/03/17 05:10:35;;;;;;;10.65;7.20;;;9.00;99.90;;;;;;4996468;28;20046;-64
2022/03/17 05:13:07;;;;;;;12.27;7.40;;;8.90;99.90;;;;;;5014131;28;20072;-64
2022/03/17 05:15:33;;;;;;;13.23;7.45;;;8.80;99.90;;;;;;4994911;28;20053;-63
2022/03/17 05:17:59;;;;;;;11.63;7.25;;;8.80;99.90;;;;;;4993910;28;20070;-63
2022/03/17 05:20:25;;;;;;;10.48;7.13;;;8.70;99.90;;;;;;4994318;28;20452;-63
2022/03/17 05:22:51;;;;;;;13.50;8.10;;;8.80;99.90;;;;;;4994441;28;20125;-62
2022/03/17 05:25:18;;;;;;;13.45;8.32;;;8.80;99.90;;;;;;5012027;28;20038;-64
2022/03/17 05:27:46;;;;;;;13.07;8.02;;;8.70;99.90;;;;;;5014032;28;20037;-64
2022/03/17 05:30:14;;;;;;;12.95;7.95;;;8.70;99.90;;;;;;4996830;28;20107;-63
2022/03/17 05:32:40;;;;;;;17.45;8.07;;;8.70;99.90;;;;;;4999770;28;20096;-63
2022/03/17 05:35:08;;;;;;;12.70;7.85;;;8.70;99.90;;;;;;5001855;28;20066;-63
2022/03/17 05:37:37;;;;;;;13.52;7.63;;;8.60;99.90;;;;;;4980502;28;20053;-63
2022/03/17 05:40:05;;;;;;;12.88;7.97;;;8.60;99.90;;;;;;4998218;28;20046;-63
2022/03/17 05:42:31;;;;;;;13.45;8.68;;;8.60;99.90;;;;;;4980885;28;20382;-63
2022/03/17 05:44:57;;;;;;;17.52;8.52;;;8.70;99.90;;;;;;5012111;28;20471;-64
2022/03/17 05:47:23;;;;;;;13.85;7.82;;;8.70;99.90;;;;;;4999883;28;20044;-63
2022/03/17 05:49:49;;;;;;;14.13;7.97;;;8.60;99.90;;;;;;5017717;28;20037;-63
2022/03/17 05:52:15;;;;;;;13.60;8.27;;;8.70;99.90;;;;;;5017954;28;20046;-63
2022/03/17 05:54:41;;;;;;;18.67;7.85;;;8.60;99.90;;;;;;5005243;28;20333;-63
2022/03/17 05:57:09;;;;;;;14.20;7.97;;;8.60;99.90;;;;;;5011686;28;20054;-64
2022/03/17 05:59:39;;;;;;;15.10;8.20;;;8.60;99.90;;;;;;5004670;28;20088;-63
2022/03/17 06:02:05;;;;;;;14.65;6.97;;;8.70;99.90;;;;;;4997549;28;20046;-63
2022/03/17 06:04:31;;;;;;;13.43;6.82;;;8.60;99.90;;;;;;4997984;28;20351;-63
2022/03/17 06:06:56;;;;;;;15.48;6.50;;;8.60;99.90;;;;;;4998777;28;20049;-64
2022/03/17 06:09:22;;;;;;;14.85;6.25;;;8.50;99.90;;;;;;4997209;28;20038;-63
2022/03/17 06:11:48;;;;;;;19.38;6.03;;;8.50;99.90;;;;;;4998504;28;20349;-64
2022/03/17 06:14:13;;;;;;;10.40;5.75;;;8.50;99.90;;;;;;4982130;28;20050;-63
2022/03/17 06:16:39;;;;;;;16.00;5.68;;;8.60;99.90;;;;;;5016688;28;20053;-63
2022/03/17 06:19:04;;;;;;;13.27;5.53;;;8.60;99.90;;;;;;5016520;28;20049;-64
2022/03/17 06:21:30;;;;;;;12.30;4.47;;;8.60;99.90;;;;;;5017144;28;20049;-64
2022/03/17 06:23:56;;;;;;;16.30;4.35;;;8.60;99.90;;;;;;5016047;28;20438;-63
2022/03/17 06:26:21;;;;;;;11.23;4.05;;;8.60;99.90;;;;;;5016459;28;20129;-63
2022/03/17 06:28:47;;;;;;;13.07;3.97;;;8.50;99.90;;;;;;5016708;28;20042;-63
2022/03/17 06:31:12;;;;;;;10.80;3.58;;;8.50;99.90;;;;;;5016167;28;20038;-62
2022/03/17 06:33:38;;;;;;;11.05;3.75;;;8.50;99.90;;;;;;5016130;28;20432;-64
2022/03/17 06:36:04;;;;;;;10.82;3.55;;;8.50;99.90;;;;;;4999336;28;20095;-63
2022/03/17 06:38:30;;;;;;;12.77;3.67;;;8.50;99.90;;;;;;4995533;28;20037;-64
2022/03/17 06:40:55;;;;;;;11.25;2.97;;;8.40;99.90;;;;;;5012232;28;20038;-63
2022/03/17 06:43:21;;;;;;;14.27;3.47;;;8.40;99.90;;;;;;5015674;28;20038;-64
2022/03/17 06:45:47;;;;;;;11.60;3.40;;;8.40;99.90;;;;;;5016993;28;20069;-64
2022/03/17 06:48:12;;;;;;;13.45;3.42;;;8.40;99.90;;;;;;5016295;28;20072;-63
2022/03/17 06:50:38;;;;;;;14.45;3.45;;;8.40;99.90;;;;;;4999432;28;20125;-64
2022/03/17 06:53:04;;;;;;;15.75;3.28;;;8.40;99.90;;;;;;5016261;28;20034;-63
2022/03/17 06:55:33;;;;;;;13.35;3.20;;;8.40;99.90;;;;;;5015708;28;20099;-64
2022/03/17 06:57:59;;;;;;;15.25;3.40;;;8.40;99.90;;;;;;5016081;28;20104;-63
2022/03/17 07:00:25;;;;;;;14.32;3.38;;;8.40;99.90;;;;;;5016574;28;20038;-63
2022/03/17 07:02:50;;;;;;;13.27;3.13;;;8.40;99.90;;;;;;5016629;28;20145;-62
2022/03/17 07:05:16;;;;;;;13.48;3.35;;;8.50;99.90;;;;;;4999900;28;20042;-63
2022/03/17 07:07:43;;;;;;;14.77;3.42;;;8.50;99.90;;;;;;5006773;28;20060;-64
2022/03/17 07:10:10;;;;;;;20.08;3.90;;;8.50;99.90;;;;;;4998209;28;20191;-62
2022/03/17 07:12:37;;;;;;;12.02;2.53;;;8.50;99.90;;;;;;4996089;28;20360;-64
2022/03/17 07:15:04;;;;;;;14.82;3.40;;;8.40;99.90;;;;;;4997136;28;20046;-64
2022/03/17 07:17:39;;;;;;;14.23;2.75;;;8.50;99.90;;;;;;4996195;28;20042;-63
2022/03/17 07:20:16;;;;;;;13.90;3.10;;;8.40;99.90;;;;;;4996554;28;20108;-63
2022/03/17 07:22:43;;;;;;;15.40;2.90;;;8.40;99.90;;;;;;4979542;28;20050;-64
2022/03/17 07:25:10;;;;;;;12.45;2.53;;;8.40;99.90;;;;;;4994099;28;20414;-64
2022/03/17 07:27:41;;;;;;;12.13;2.38;;;8.30;99.90;;;;;;5015595;28;20069;-62
2022/03/17 07:30:12;;;;;;;12.85;2.65;;;8.40;99.90;;;;;;5015857;28;20102;-63
2022/03/17 07:32:38;;;;;;;14.90;2.47;;;8.40;99.90;;;;;;5015370;28;20041;-63
2022/03/17 07:35:05;;;;;;;12.13;2.88;;;8.40;99.90;;;;;;4982772;28;20054;-63
2022/03/17 07:37:31;;;;;;;13.80;2.55;;;8.40;99.90;;;;;;4994544;28;20069;-66
2022/03/17 07:39:56;;;;;;;13.35;2.63;;;8.40;99.90;;;;;;4994571;28;20471;-64
2022/03/17 07:42:22;;;;;;;14.30;3.10;;;8.40;99.90;;;;;;4998151;28;20038;-66
2022/03/17 07:44:47;;;;;;;14.70;3.65;;;8.30;99.90;;;;;;4996801;28;20034;-63
2022/03/17 07:47:14;;;;;;;18.02;5.45;;;8.40;99.90;;;;;;4999996;28;20026;-63
2022/03/17 07:49:40;;;;;;;11.57;3.22;;;8.30;99.90;;;;;;5012093;28;20064;-63
2022/03/17 07:52:07;;;;;;;11.80;2.72;;;8.30;99.90;;;;;;5014971;28;20133;-63
2022/03/17 07:54:33;;;;;;;12.20;3.05;;;8.40;99.90;;;;;;5008363;28;20042;-64
2022/03/17 07:57:00;;;;;;;17.33;2.72;;;8.30;99.90;;;;;;5014886;28;20752;-64
2022/03/17 07:59:26;;;;;;;17.15;2.95;;;8.30;99.90;;;;;;5015455;28;20064;-63
2022/03/17 08:01:52;;;;;;;17.58;2.88;;;8.20;99.90;;;;;;5015138;28;20145;-64
2022/03/17 08:04:18;;;;;;;15.13;3.55;;;8.30;99.90;;;;;;5006808;28;20506;-64
2022/03/17 08:06:43;;;;;;;14.75;5.75;;;8.30;99.90;;;;;;4997444;28;20056;-63
2022/03/17 08:09:10;;;;;;;22.50;7.60;;;8.30;99.90;;;;;;4997389;28;20056;-63
2022/03/17 08:11:36;;;;;;;23.52;6.45;;;8.30;99.90;;;;;;5014662;28;20153;-64
2022/03/17 08:14:02;;;;;;;18.77;4.50;;;8.30;99.90;;;;;;5014296;28;20419;-65
2022/03/17 08:16:27;;;;;;;19.42;6.38;;;8.30;99.90;;;;;;5014825;28;20115;-64
2022/03/17 08:18:53;;;;;;;18.27;6.18;;;8.20;99.90;;;;;;4996970;28;20049;-64
2022/03/17 08:21:19;;;;;;;21.38;5.35;;;8.20;99.90;;;;;;5000912;28;20042;-64
2022/03/17 08:23:45;;;;;;;16.30;5.00;;;8.20;99.90;;;;;;4998686;28;20096;-63
2022/03/17 08:26:12;;;;;;;15.15;4.47;;;8.20;99.90;;;;;;5014939;28;20149;-65
2022/03/17 08:28:38;;;;;;;15.88;3.70;;;8.20;99.90;;;;;;5014111;28;20045;-64
2022/03/17 08:31:04;;;;;;;13.65;4.22;;;8.30;99.90;;;;;;5014552;28;20040;-63
2022/03/17 08:33:29;;;;;;;17.98;3.85;;;8.40;99.90;;;;;;5013090;28;20397;-66
2022/03/17 08:35:55;;;;;;;16.25;3.78;;;8.40;99.90;;;;;;4994780;28;20455;-64
2022/03/17 08:38:21;;;;;;;12.35;2.58;;;8.40;99.90;;;;;;4994754;28;20096;-64
2022/03/17 08:40:46;;;;;;;18.40;3.15;;;8.40;99.90;;;;;;4995285;28;20459;-64
2022/03/17 08:43:12;;;;;;;16.30;3.33;;;8.40;99.90;;;;;;4995106;28;20359;-64
2022/03/17 08:51:09;;;;;;;;;;;8.60;99.90;;;;;;5007801;28;20142;-64
2022/03/17 08:53:36;;;;;;;18.38;4.25;;;8.60;99.90;;;;;;4995931;28;20017;-64
2022/03/17 08:56:02;;;;;;;20.80;5.15;;;8.70;99.90;;;;;;5013075;28;20458;-63
2022/03/17 08:58:29;;;;;;;16.02;4.47;;;8.70;99.90;;;;;;5014013;28;20057;-64
2022/03/17 09:00:55;;;;;;;20.23;5.25;;;8.70;99.90;;;;;;5014326;28;20362;-64
2022/03/17 09:03:21;;;;;;;15.75;4.78;;;8.70;99.90;;;;;;4996383;28;20049;-64
2022/03/17 09:05:47;;;;;;;20.70;5.68;;;8.80;99.90;;;;;;4976707;28;20046;-65
2022/03/17 09:08:13;;;;;;;16.25;4.80;;;8.70;99.90;;;;;;4994196;28;20041;-64
2022/03/17 09:10:40;;;;;;;14.52;4.88;;;8.70;99.90;;;;;;4994207;28;20745;-64
2022/03/17 09:13:09;;;;;;;15.38;4.10;;;8.60;99.90;;;;;;4994278;28;20356;-63
2022/03/17 09:15:38;;;;;;;15.93;3.92;;;8.60;99.90;;;;;;5012416;28;20053;-65
2022/03/17 09:18:06;;;;;;;17.73;3.60;;;8.60;99.90;;;;;;5013669;28;20042;-64
2022/03/17 09:20:32;;;;;;;18.48;3.38;;;8.60;99.90;;;;;;5014161;28;20056;-64
2022/03/17 09:22:58;;;;;;;17.95;3.55;;;8.70;99.90;;;;;;5013684;28;20120;-63
2022/03/17 09:25:28;;;;;;;15.52;3.47;;;8.60;99.90;;;;;;4997458;28;20049;-63
2022/03/17 09:27:54;;;;;;;19.83;4.47;;;8.70;99.90;;;;;;4994152;28;20038;-63
2022/03/17 09:30:21;;;;;;;15.40;4.03;;;8.70;99.90;;;;;;4994357;28;20154;-63
2022/03/17 09:32:47;;;;;;;18.55;3.42;;;8.70;99.90;;;;;;4976896;28;20081;-64
2022/03/17 09:35:14;;;;;;;13.00;3.03;;;8.70;99.90;;;;;;5009059;28;20041;-63
2022/03/17 09:37:41;;;;;;;15.40;2.90;;;8.80;99.90;;;;;;4995999;28;20049;-64
2022/03/17 09:40:08;;;;;;;11.48;2.60;;;8.80;99.90;;;;;;5013894;28;20052;-64
2022/03/17 09:42:34;;;;;;;17.33;2.95;;;8.80;99.90;;;;;;5013750;28;20133;-64
2022/03/17 09:45:00;;;;;;;12.43;3.03;;;8.90;99.90;;;;;;5000464;28;20038;-63
2022/03/17 09:47:28;;;;;;;11.10;3.45;;;8.90;99.90;;;;;;4993764;28;20056;-64
2022/03/17 09:49:56;;;;;;;10.98;3.53;;;9.00;99.90;;;;;;4977177;28;20046;-64
2022/03/17 09:52:22;;;;;;;11.48;2.53;;;9.00;99.90;;;;;;4994054;28;20490;-63
2022/03/17 09:54:49;;;;;;;10.13;3.05;;;9.20;99.90;;;;;;4996891;28;20114;-66
2022/03/17 09:57:16;;;;;;;10.75;2.92;;;9.30;99.90;;;;;;4994050;28;20030;-64
2022/03/17 09:59:53;;;;;;;10.00;2.95;;;9.30;99.90;;;;;;4994144;28;20104;-64
2022/03/17 10:02:19;;;;;;;13.00;3.85;;;9.50;99.90;;;;;;4993743;28;20486;-66
2022/03/17 10:04:47;;;;;;;10.73;2.25;;;9.50;99.90;;;;;;5004952;28;20042;-64
2022/03/17 10:07:14;;;;;;;12.40;1.77;;;9.70;99.90;;;;;;5013408;28;20133;-64
2022/03/17 10:09:40;;;;;;;12.93;2.40;;;9.60;99.90;;;;;;5013508;28;20132;-64
2022/03/17 10:12:10;;;;;;;14.40;3.50;;;9.70;99.90;;;;;;5013161;28;20133;-65
2022/03/17 10:14:41;;;;;;;10.25;2.40;;;9.90;99.90;;;;;;4986294;28;20046;-66
2022/03/17 10:17:28;;;;;;;12.15;2.75;;;9.90;99.90;;;;;;4994007;28;20460;-65
2022/03/17 10:20:16;;;;;;;10.55;2.17;;;10.00;99.90;;;;;;4997424;28;20050;-64
2022/03/17 10:22:47;;;;;;;21.48;4.97;;;10.00;99.90;;;;;;4997596;28;20042;-62
2022/03/17 10:25:16;;;;;;;10.00;2.53;;;10.30;99.90;;;;;;5011918;28;20042;-64
2022/03/17 10:27:46;;;;;;;9.77;1.90;;;10.50;99.90;;;;;;5016703;28;20041;-63
2022/03/17 10:30:25;;;;;;;14.02;2.20;;;10.70;99.90;;;;;;4999415;28;20156;-63
2022/03/17 10:33:00;;;;;;;11.95;2.10;;;10.70;99.90;;;;;;5016729;28;20045;-64
2022/03/17 10:35:36;;;;;;;10.80;1.92;;;10.60;99.90;;;;;;5000268;28;20419;-64
2022/03/17 10:38:27;;;;;;;8.48;2.33;;;10.70;99.90;;;;;;4996689;28;20447;-63
2022/03/17 10:41:01;;;;;;;12.15;2.60;;;10.70;99.90;;;;;;4979750;28;20038;-63
2022/03/17 10:43:29;;;;;;;12.35;2.08;;;10.70;99.90;;;;;;4964312;28;20069;-64
2022/03/17 10:46:28;;;;;;;7.63;1.92;;;10.60;99.90;;;;;;5016418;28;20133;-63
2022/03/17 10:48:59;;;;;;;10.45;2.35;;;10.50;99.90;;;;;;4984370;28;20463;-64
2022/03/17 10:51:33;;;;;;;8.75;2.08;;;10.40;99.90;;;;;;5016190;28;20489;-64
2022/03/17 10:54:09;;;;;;;;;;;10.40;99.90;;;;;;4996854;28;20122;-63
2022/03/17 10:56:39;;;;;;;7.10;1.65;;;10.60;99.90;;;;;;5015727;28;20350;-63
2022/03/17 10:59:07;;;;;;;10.48;2.25;;;10.50;99.90;;;;;;4999192;28;20382;-64
2022/03/17 11:01:43;;;;;;;9.48;2.00;;;10.40;99.90;;;;;;5016270;28;20129;-64
2022/03/17 11:04:10;;;;;;;11.73;2.30;;;10.30;99.90;;;;;;5010649;28;20042;-64
2022/03/17 11:06:38;;;;;;;9.20;2.03;;;10.30;99.90;;;;;;4996321;28;20050;-63
2022/03/17 11:09:08;;;;;;;6.65;2.15;;;10.50;99.90;;;;;;4996602;28;20039;-64
2022/03/17 11:11:37;;;;;;;8.57;2.10;;;10.50;99.90;;;;;;5012039;28;20042;-63
2022/03/17 11:14:06;;;;;;;11.15;2.30;;;10.70;99.90;;;;;;5007149;28;20038;-64
2022/03/17 11:16:46;;;;;;;10.05;2.40;;;10.90;99.90;;;;;;4995174;28;20049;-63
2022/03/17 11:19:17;;;;;;;9.05;2.00;;;11.00;99.90;;;;;;5006016;28;20041;-64
2022/03/17 11:21:48;;;;;;;11.85;2.58;;;11.00;99.90;;;;;;4998149;28;20390;-63
2022/03/17 11:24:21;;;;;;;10.35;2.25;;;11.00;99.90;;;;;;5015217;28;20115;-63
2022/03/17 11:26:47;;;;;;;11.43;2.22;;;11.10;99.90;;;;;;4998149;28;20045;-65
2022/03/17 11:29:18;;;;;;;10.45;2.42;;;11.00;99.90;;;;;;5014508;28;20053;-64
2022/03/17 11:31:56;;;;;;;8.95;2.35;;;11.10;99.90;;;;;;5015192;28;20077;-64
2022/03/17 11:34:47;;;;;;;13.60;3.00;;;11.20;99.90;;;;;;4996669;28;20046;-64
2022/03/17 11:37:26;;;;;;;11.32;2.47;;;11.10;99.90;;;;;;5014841;28;20038;-64
2022/03/17 11:39:54;;;;;;;11.68;2.50;;;11.20;99.90;;;;;;5014933;28;20037;-64
2022/03/17 11:42:42;;;;;;;13.27;2.60;;;11.10;99.90;;;;;;5015125;28;20040;-64
2022/03/17 11:45:31;;;;;;;12.50;2.40;;;11.20;99.90;;;;;;5014407;28;20049;-64
2022/03/17 11:47:58;;;;;;;14.35;2.50;;;11.20;99.90;;;;;;5014199;28;20037;-64
2022/03/17 11:50:25;;;;;;;12.20;2.55;;;11.20;99.90;;;;;;5014830;28;20478;-65
2022/03/17 11:53:04;;;;;;;11.55;2.75;;;11.30;99.90;;;;;;4998002;28;20052;-65
2022/03/17 11:55:42;;;;;;;12.48;2.70;;;11.10;99.90;;;;;;5000043;28;20038;-65
2022/03/17 11:58:43;;;;;;;10.98;2.15;;;11.20;99.90;;;;;;4995239;28;20336;-64
2022/03/17 12:01:28;;;;;;;8.43;2.08;;;11.20;99.90;;;;;;4978546;28;20050;-63
2022/03/17 12:04:02;;;;;;;12.82;2.30;;;11.30;99.90;;;;;;4998033;28;20550;-64
2022/03/17 12:06:35;;;;;;;13.95;3.08;;;11.20;99.90;;;;;;5014485;28;20096;-63
2022/03/17 12:09:07;;;;;;;11.33;2.53;;;11.30;99.90;;;;;;5015147;28;20042;-64
2022/03/17 12:11:36;;;;;;;12.68;2.90;;;11.20;99.90;;;;;;5014691;28;20300;-63
2022/03/17 12:14:17;;;;;;;7.75;2.10;;;11.20;99.90;;;;;;5010827;28;20046;-64
2022/03/17 12:16:48;;;;;;;8.70;1.98;;;11.30;99.90;;;;;;4994852;28;20527;-64
2022/03/17 12:19:28;;;;;;;8.00;2.00;;;11.40;99.90;;;;;;4995551;28;20104;-64
2022/03/17 12:22:03;;;;;;;9.73;2.25;;;11.50;99.90;;;;;;4977988;28;20050;-64
2022/03/17 12:24:51;;;;;;;9.70;2.13;;;11.50;99.90;;;;;;5002517;28;20049;-63
2022/03/17 12:27:26;;;;;;;12.18;2.50;;;11.60;99.90;;;;;;5014493;28;20474;-64
2022/03/17 12:30:15;;;;;;;;;;;11.80;99.90;;;;;;5015144;28;20058;-65
2022/03/17 12:32:47;;;;;;;11.00;2.35;;;11.80;99.90;;;;;;5008790;28;19924;-64
2022/03/17 12:35:13;;;;;;;12.20;2.55;;;11.80;99.90;;;;;;5001210;28;20113;-64
2022/03/17 12:37:40;;;;;;;13.27;2.38;;;11.80;99.90;;;;;;4994555;28;20515;-65
2022/03/17 12:40:11;;;;;;;10.63;2.30;;;12.00;99.90;;;;;;4994907;28;20100;-65
2022/03/17 12:42:44;;;;;;;16.00;2.25;;;12.10;99.90;;;;;;5001544;28;20049;-64
2022/03/17 12:45:15;;;;;;;9.98;2.40;;;12.00;99.90;;;;;;5007358;28;20046;-64
2022/03/17 12:47:46;;;;;;;13.43;2.85;;;11.90;99.90;;;;;;5014063;28;20049;-63
2022/03/17 12:50:15;;;;;;;9.10;1.98;;;11.80;99.90;;;;;;5014426;28;20045;-64
2022/03/17 12:52:42;;;;;;;11.07;2.03;;;11.80;99.90;;;;;;4996909;28;20046;-64
2022/03/17 12:55:11;;;;;;;8.43;1.95;;;11.60;99.90;;;;;;5012940;28;20096;-64
2022/03/17 12:57:38;;;;;;;11.02;2.33;;;11.60;99.90;;;;;;4996393;28;20046;-63
2022/03/17 13:00:06;;;;;;;12.88;2.90;;;11.50;99.90;;;;;;5014099;28;20046;-63